createdAt,value
2022-08-11T00:02:02.400Z,101790.63
2022-08-11T00:04:39.837Z,101793.69
2022-08-11T00:10:32.104Z,101794.94
2022-08-11T00:13:21.738Z,101790.22
2022-08-11T00:20:11.857Z,101788.41
2022-08-11T00:22:24.108Z,101796.63
2022-08-11T00:24:57.205Z,101793.41
2022-08-11T00:27:40.741Z,101792.69
2022-08-11T00:30:18.028Z,101794.34
2022-08-11T00:33:01.769Z,101800.06
2022-08-11T00:35:53.931Z,101790.75
2022-08-11T00:38:30.058Z,101791.13
2022-08-11T00:41:49.368Z,101792.88
2022-08-11T00:44:47.525Z,101792.63
2022-08-11T00:48:14.314Z,101794.75
2022-08-11T00:51:57.665Z,101796.66
2022-08-11T00:55:23.428Z,101796.44
2022-08-11T00:58:50.761Z,101797.91
2022-08-11T01:01:18.177Z,101793.06
2022-08-11T01:04:34.737Z,101798.00
2022-08-11T01:08:02.099Z,101797.94
2022-08-11T01:11:06.732Z,101798.09
2022-08-11T01:14:26.121Z,101797.75
2022-08-11T01:18:01.687Z,101795.88
2022-08-11T01:21:34.708Z,101802.81
2022-08-11T01:25:14.830Z,101802.25
2022-08-11T01:28:19.066Z,101802.75
2022-08-11T01:31:34.355Z,101802.59
2022-08-11T01:35:01.422Z,101808.13
2022-08-11T01:38:34.974Z,101809.13
2022-08-11T01:41:53.207Z,101802.72
2022-08-11T01:45:03.997Z,101811.25
2022-08-11T01:48:22.364Z,101801.22
2022-08-11T01:51:26.877Z,101802.47
2022-08-11T01:54:17.234Z,101799.84
2022-08-11T01:57:51.251Z,101794.75
2022-08-11T02:00:29.001Z,101787.63
2022-08-11T02:03:24.464Z,101793.28
2022-08-11T02:06:54.735Z,101788.00
2022-08-11T02:10:00.247Z,101794.66
2022-08-11T02:12:52.955Z,101799.66
2022-08-11T02:15:39.355Z,101800.59
2022-08-11T02:18:24.228Z,101787.34
2022-08-11T02:21:26.459Z,101791.16
2022-08-11T02:24:08.249Z,101791.38
2022-08-11T02:26:46.741Z,101784.97
2022-08-11T02:29:28.708Z,101786.38
2022-08-11T02:32:46.557Z,101786.91
2022-08-11T02:35:42.811Z,101791.28
2022-08-11T02:38:54.492Z,101787.47
2022-08-11T02:42:32.488Z,101785.59
2022-08-11T02:45:49.051Z,101791.16
2022-08-11T02:49:15.694Z,101775.06
2022-08-11T02:52:07.183Z,101782.25
2022-08-11T02:55:02.397Z,101780.34
2022-08-11T02:58:22.076Z,101777.38
2022-08-11T03:01:11.777Z,101787.69
2022-08-11T03:04:18.019Z,101789.00
2022-08-11T03:07:29.310Z,101783.97
2022-08-11T03:10:30.875Z,101781.72
2022-08-11T03:13:40.114Z,101780.84
2022-08-11T03:16:53.167Z,101780.41
2022-08-11T03:20:03.666Z,101782.09
2022-08-11T03:23:01.788Z,101774.69
2022-08-11T03:26:03.156Z,101785.69
2022-08-11T03:28:54.829Z,101782.81
2022-08-11T03:31:54.706Z,101787.91
2022-08-11T03:34:28.426Z,101784.03
2022-08-11T03:37:52.989Z,101791.50
2022-08-11T03:40:48.309Z,101788.34
2022-08-11T03:44:04.953Z,101786.69
2022-08-11T03:47:05.184Z,101787.91
2022-08-11T03:50:12.109Z,101781.31
2022-08-11T03:53:35.794Z,101782.78
2022-08-11T03:56:49.472Z,101784.06
2022-08-11T04:00:11.900Z,101789.34
2022-08-11T04:03:20.403Z,101787.19
2022-08-11T04:06:37.648Z,101792.19
2022-08-11T04:09:46.502Z,101788.28
2022-08-11T04:12:59.266Z,101785.97
2022-08-11T04:16:11.551Z,101781.78
2022-08-11T04:19:47.484Z,101780.72
2022-08-11T04:23:07.394Z,101786.09
2022-08-11T04:26:44.169Z,101789.22
2022-08-11T04:30:03.913Z,101802.38
2022-08-11T04:32:59.286Z,101797.19
2022-08-11T04:36:53.703Z,101799.31
2022-08-11T04:39:34.509Z,101794.84
2022-08-11T04:43:22.457Z,101796.53
2022-08-11T04:46:51.434Z,101799.84
2022-08-11T04:50:33.961Z,101799.28
2022-08-11T04:53:53.432Z,101799.16
2022-08-11T04:56:44.698Z,101795.19
2022-08-11T05:00:30.123Z,101795.72
2022-08-11T05:03:46.575Z,101796.00
2022-08-11T05:07:06.504Z,101800.16
2022-08-11T05:10:16.099Z,101797.63
2022-08-11T05:13:30.022Z,101804.38
2022-08-11T05:16:26.345Z,101799.22
2022-08-11T05:19:19.266Z,101805.78
2022-08-11T05:22:17.923Z,101808.03
2022-08-11T05:25:10.942Z,101807.06
2022-08-11T05:28:33.918Z,101809.75
2022-08-11T05:31:33.953Z,101815.25
2022-08-11T05:34:41.558Z,101815.16
2022-08-11T05:37:33.815Z,101814.16
2022-08-11T05:40:31.850Z,101808.81
2022-08-11T05:43:32.284Z,101812.78
2022-08-11T05:46:26.196Z,101815.09
2022-08-11T05:49:13.029Z,101818.53
2022-08-11T05:52:05.434Z,101820.06
2022-08-11T05:55:06.130Z,101811.97
2022-08-11T05:57:48.972Z,101816.38
2022-08-11T06:00:20.444Z,101818.00
2022-08-11T06:02:55.705Z,101819.47
2022-08-11T06:05:43.234Z,101813.47
2022-08-11T06:08:13.780Z,101816.31
2022-08-11T06:10:46.191Z,101819.03
2022-08-11T06:13:17.572Z,101819.91
2022-08-11T06:15:52.077Z,101819.50
2022-08-11T06:18:20.497Z,101824.66
2022-08-11T06:21:00.404Z,101822.59
2022-08-11T06:23:33.629Z,101821.75
2022-08-11T06:26:14.339Z,101823.22
2022-08-11T06:28:45.880Z,101819.56
2022-08-11T06:31:25.662Z,101824.75
2022-08-11T06:34:53.148Z,101827.94
2022-08-11T06:38:17.892Z,101830.44
2022-08-11T06:41:30.530Z,101824.56
2022-08-11T06:44:13.082Z,101831.06
2022-08-11T06:46:47.571Z,101826.28
2022-08-11T06:49:50.658Z,101825.28
2022-08-11T06:52:35.301Z,101827.91
2022-08-11T06:55:56.671Z,101825.28
2022-08-11T06:58:54.266Z,101820.06
2022-08-11T07:02:15.492Z,101819.22
2022-08-11T07:05:04.223Z,101822.44
2022-08-11T07:08:36.105Z,101827.22
2022-08-11T07:12:03.188Z,101819.41
2022-08-11T07:14:51.396Z,101816.19
2022-08-11T07:17:25.113Z,101814.50
2022-08-11T07:20:20.100Z,101813.38
2022-08-11T07:23:20.371Z,101808.56
2022-08-11T07:26:12.810Z,101815.69
2022-08-11T07:28:57.967Z,101812.59
2022-08-11T07:31:31.374Z,101805.97
2022-08-11T07:34:20.541Z,101808.13
2022-08-11T07:37:03.228Z,101801.59
2022-08-11T07:39:37.853Z,101801.00
2022-08-11T07:42:13.446Z,101798.00
2022-08-11T07:45:05.560Z,101800.75
2022-08-11T07:47:54.092Z,101800.50
2022-08-11T07:50:41.005Z,101793.63
2022-08-11T07:53:08.712Z,101797.28
2022-08-11T07:55:51.099Z,101799.69
2022-08-11T07:58:45.759Z,101797.72
2022-08-11T08:01:50.313Z,101802.63
2022-08-11T08:04:38.350Z,101806.03
2022-08-11T08:07:24.421Z,101811.66
2022-08-11T08:10:15.871Z,101810.47
2022-08-11T08:13:02.505Z,101808.63
2022-08-11T08:15:50.267Z,101803.91
2022-08-11T08:18:27.074Z,101798.69
2022-08-11T08:21:12.089Z,101797.41
2022-08-11T08:23:46.612Z,101796.63
2022-08-11T08:26:35.025Z,101793.03
2022-08-11T08:29:25.381Z,101794.16
2022-08-11T08:31:53.189Z,101797.72
2022-08-11T08:34:21.356Z,101795.63
2022-08-11T08:36:51.574Z,101785.19
2022-08-11T08:39:23.311Z,101779.59
2022-08-11T08:41:56.055Z,101791.63
2022-08-11T08:44:42.032Z,101783.44
2022-08-11T08:47:41.709Z,101780.00
2022-08-11T08:50:16.948Z,101777.81
2022-08-11T08:53:01.660Z,101778.22
2022-08-11T08:55:34.508Z,101776.03
2022-08-11T08:58:02.449Z,101774.22
2022-08-11T09:00:47.121Z,101767.44
2022-08-11T09:06:07.312Z,101776.00
2022-08-11T09:08:35.493Z,101773.00
2022-08-11T09:11:24.280Z,101765.41
2022-08-11T09:14:05.120Z,101760.63
2022-08-11T09:16:36.139Z,101770.81
2022-08-11T09:19:04.019Z,101770.63
2022-08-11T09:21:48.853Z,101760.97
2022-08-11T09:24:38.099Z,101761.03
2022-08-11T09:27:08.411Z,101764.00
2022-08-11T09:29:38.025Z,101763.56
2022-08-11T09:32:07.154Z,101756.13
2022-08-11T09:34:37.252Z,101759.81
2022-08-11T09:37:54.686Z,101764.41
2022-08-11T09:40:29.233Z,101765.19
2022-08-11T09:43:25.410Z,101753.78
2022-08-11T09:45:54.622Z,101755.72
2022-08-11T09:48:26.128Z,101752.81
2022-08-11T09:50:59.682Z,101745.28
2022-08-11T09:53:36.182Z,101740.63
2022-08-11T09:56:35.245Z,101739.81
2022-08-11T09:59:04.760Z,101741.69
2022-08-11T10:01:47.363Z,101730.66
2022-08-11T10:04:28.695Z,101728.69
2022-08-11T10:07:03.448Z,101721.16
2022-08-11T10:10:01.413Z,101718.25
2022-08-11T10:12:42.187Z,101725.63
2022-08-11T10:15:34.147Z,101731.41
2022-08-11T10:18:37.644Z,101728.00
2022-08-11T10:21:44.191Z,101715.44
2022-08-11T10:24:31.859Z,101714.91
2022-08-11T10:27:00.645Z,101714.03
2022-08-11T10:29:54.713Z,101721.25
2022-08-11T10:32:59.448Z,101708.03
2022-08-11T10:35:32.599Z,101701.75
2022-08-11T10:38:07.700Z,101703.13
2022-08-11T10:41:07.428Z,101709.31
2022-08-11T10:44:01.378Z,101702.13
2022-08-11T10:46:50.965Z,101698.41
2022-08-11T10:49:20.559Z,101694.13
2022-08-11T10:52:07.094Z,101689.91
2022-08-11T10:55:00.684Z,101686.31
2022-08-11T10:58:07.484Z,101691.03
2022-08-11T11:00:36.275Z,101683.81
2022-08-11T11:03:22.298Z,101681.81
2022-08-11T11:06:27.830Z,101674.97
2022-08-11T11:08:57.488Z,101683.31
2022-08-11T11:11:52.234Z,101675.50
2022-08-11T11:14:45.746Z,101676.06
2022-08-11T11:17:15.704Z,101674.34
2022-08-11T11:19:44.958Z,101668.59
2022-08-11T11:22:33.697Z,101666.72
2022-08-11T11:25:23.167Z,101665.22
2022-08-11T11:28:56.676Z,101662.66
2022-08-11T11:32:12.151Z,101650.56
2022-08-11T11:35:06.361Z,101661.16
2022-08-11T11:37:35.612Z,101656.16
2022-08-11T11:40:14.533Z,101657.63
2022-08-11T11:42:46.256Z,101653.81
2022-08-11T11:45:23.374Z,101659.88
2022-08-11T11:47:56.168Z,101649.53
2022-08-11T11:50:42.925Z,101645.31
2022-08-11T11:53:12.312Z,101644.06
2022-08-11T11:55:40.619Z,101635.50
2022-08-11T11:58:31.495Z,101636.88
2022-08-11T12:01:19.903Z,101641.16
2022-08-11T12:03:50.984Z,101626.06
2022-08-11T12:06:22.135Z,101628.06
2022-08-11T12:08:53.654Z,101622.41
2022-08-11T12:11:44.267Z,101626.38
2022-08-11T12:14:12.621Z,101618.88
2022-08-11T12:16:43.602Z,101621.84
2022-08-11T12:19:17.712Z,101620.22
2022-08-11T12:22:04.515Z,101613.25
2022-08-11T12:24:53.494Z,101603.06
2022-08-11T12:27:25.963Z,101605.78
2022-08-11T12:30:13.724Z,101599.94
2022-08-11T12:32:42.839Z,101594.44
2022-08-11T12:35:11.356Z,101603.75
2022-08-11T12:37:47.599Z,101594.72
2022-08-11T12:41:11.753Z,101602.03
2022-08-11T12:43:56.955Z,101598.34
2022-08-11T12:46:34.479Z,101599.28
2022-08-11T12:49:33.158Z,101589.97
2022-08-11T12:52:15.803Z,101588.38
2022-08-11T12:55:39.372Z,101587.69
2022-08-11T12:58:15.897Z,101572.13
2022-08-11T13:01:04.155Z,101579.59
2022-08-11T13:03:56.663Z,101572.88
2022-08-11T13:06:26.163Z,101574.94
2022-08-11T13:09:00.998Z,101567.03
2022-08-11T13:12:03.492Z,101554.94
2022-08-11T13:14:33.150Z,101557.88
2022-08-11T13:17:20.821Z,101547.47
2022-08-11T13:20:12.564Z,101558.72
2022-08-11T13:22:45.819Z,101552.09
2022-08-11T13:25:16.192Z,101551.13
2022-08-11T13:27:46.474Z,101549.88
2022-08-11T13:30:43.067Z,101543.94
2022-08-11T13:33:16.910Z,101545.44
2022-08-11T13:35:49.647Z,101546.25
2022-08-11T13:38:20.437Z,101551.91
2022-08-11T13:40:56.146Z,101541.75
2022-08-11T13:43:24.847Z,101544.09
2022-08-11T13:46:14.264Z,101536.97
2022-08-11T13:48:42.453Z,101533.28
2022-08-11T13:51:34.764Z,101531.63
2022-08-11T13:54:23.956Z,101529.16
2022-08-11T13:57:01.197Z,101530.59
2022-08-11T13:59:30.815Z,101521.66
2022-08-11T14:02:35.508Z,101519.59
2022-08-11T14:05:25.522Z,101527.19
2022-08-11T14:08:01.039Z,101523.81
2022-08-11T14:10:34.724Z,101525.94
2022-08-11T14:13:42.467Z,101521.13
2022-08-11T14:16:41.291Z,101520.59
2022-08-11T14:19:14.229Z,101516.09
2022-08-11T14:22:07.423Z,101515.94
2022-08-11T14:24:45.069Z,101512.66
2022-08-11T14:28:30.078Z,101503.69
2022-08-11T14:30:01.831Z,101498.16
2022-08-11T14:32:29.393Z,101491.94
2022-08-11T14:34:58.789Z,101496.63
2022-08-11T14:37:27.900Z,101500.88
2022-08-11T14:40:22.433Z,101489.44
2022-08-11T14:43:12.069Z,101489.59
2022-08-11T14:45:59.081Z,101488.81
2022-08-11T14:48:27.242Z,101487.00
2022-08-11T14:50:54.727Z,101495.03
2022-08-11T14:53:23.381Z,101488.25
2022-08-11T14:56:10.469Z,101490.88
2022-08-11T14:58:41.860Z,101482.66
2022-08-11T15:01:30.010Z,101487.09
2022-08-11T15:04:25.038Z,101485.91
2022-08-11T15:06:47.254Z,101484.81
2022-08-11T15:09:15.253Z,101478.66
2022-08-11T15:12:03.064Z,101466.88
2022-08-11T15:14:49.369Z,101475.06
2022-08-11T15:17:24.076Z,101467.91
2022-08-11T15:20:26.554Z,101465.41
2022-08-11T15:23:25.967Z,101459.22
2022-08-11T15:26:12.166Z,101459.53
2022-08-11T15:29:14.506Z,101460.59
2022-08-11T15:32:00.271Z,101456.94
2022-08-11T15:34:47.927Z,101456.22
2022-08-11T15:37:27.765Z,101448.72
2022-08-11T15:40:31.735Z,101448.97
2022-08-11T15:44:06.819Z,101458.56
2022-08-11T15:46:50.329Z,101453.56
2022-08-11T15:50:13.197Z,101451.59
2022-08-11T15:52:34.631Z,101454.38
2022-08-11T15:55:08.600Z,101448.91
2022-08-11T15:58:08.803Z,101449.91
2022-08-11T16:01:10.849Z,101442.06
2022-08-11T16:04:13.240Z,101441.84
2022-08-11T16:06:58.447Z,101439.06
2022-08-11T16:09:48.144Z,101434.84
2022-08-11T16:12:33.024Z,101429.94
2022-08-11T16:15:29.677Z,101439.50
2022-08-11T16:18:03.970Z,101434.19
2022-08-11T16:20:33.238Z,101438.09
2022-08-11T16:23:06.598Z,101435.53
2022-08-11T16:27:04.602Z,101437.47
2022-08-11T16:28:24.838Z,101429.03
2022-08-11T16:30:54.056Z,101430.94
2022-08-11T16:33:51.170Z,101434.25
2022-08-11T16:36:32.935Z,101430.22
2022-08-11T16:39:01.589Z,101427.94
2022-08-11T16:41:53.625Z,101424.31
2022-08-11T16:44:42.434Z,101435.78
2022-08-11T16:47:18.233Z,101434.44
2022-08-11T16:50:07.409Z,101435.59
2022-08-11T16:52:34.939Z,101435.84
2022-08-11T16:55:03.778Z,101432.50
2022-08-11T16:57:52.822Z,101429.34
2022-08-11T17:00:19.955Z,101436.44
2022-08-11T17:03:13.009Z,101429.66
2022-08-11T17:06:09.893Z,101430.69
2022-08-11T17:09:11.202Z,101424.25
2022-08-11T17:12:16.322Z,101428.91
2022-08-11T17:14:59.487Z,101428.72
2022-08-11T17:17:36.659Z,101426.22
2022-08-11T17:20:40.091Z,101420.50
2022-08-11T17:23:17.891Z,101421.16
2022-08-11T17:26:03.525Z,101428.34
2022-08-11T17:28:33.600Z,101427.59
2022-08-11T17:31:22.644Z,101429.28
2022-08-11T17:34:10.218Z,101428.97
2022-08-11T17:36:41.548Z,101424.50
2022-08-11T17:39:13.743Z,101424.97
2022-08-11T17:42:00.556Z,101427.41
2022-08-11T17:44:48.410Z,101421.53
2022-08-11T17:47:36.598Z,101431.69
2022-08-11T17:50:15.956Z,101434.22
2022-08-11T17:53:05.820Z,101432.97
2022-08-11T17:55:57.911Z,101433.41
2022-08-11T17:58:45.134Z,101429.50
2022-08-11T18:01:14.796Z,101426.56
2022-08-11T18:03:58.081Z,101426.88
2022-08-11T18:06:33.735Z,101429.34
2022-08-11T18:09:26.380Z,101443.00
2022-08-11T18:12:14.126Z,101445.50
2022-08-11T18:15:05.956Z,101446.53
2022-08-11T18:17:52.852Z,101449.84
2022-08-11T18:20:39.103Z,101450.66
2022-08-11T18:23:45.834Z,101459.94
2022-08-11T18:26:40.267Z,101461.38
2022-08-11T18:29:28.068Z,101459.81
2022-08-11T18:32:22.106Z,101471.41
2022-08-11T18:35:11.295Z,101464.53
2022-08-11T18:38:07.818Z,101461.78
2022-08-11T18:40:56.221Z,101467.56
2022-08-11T18:43:45.355Z,101468.97
2022-08-11T18:46:35.054Z,101468.09
2022-08-11T18:50:01.551Z,101477.06
2022-08-11T18:52:41.715Z,101466.78
2022-08-11T18:55:33.757Z,101472.03
2022-08-11T18:58:27.780Z,101470.88
2022-08-11T19:01:20.799Z,101480.13
2022-08-11T19:04:10.759Z,101475.41
2022-08-11T19:06:58.849Z,101474.88
2022-08-11T19:09:46.199Z,101488.00
2022-08-11T19:12:36.972Z,101477.44
2022-08-11T19:15:28.307Z,101483.53
2022-08-11T19:18:18.659Z,101479.53
2022-08-11T19:21:08.873Z,101485.59
2022-08-11T19:24:06.575Z,101483.50
2022-08-11T19:26:53.687Z,101486.41
2022-08-11T19:30:07.721Z,101491.81
2022-08-11T19:32:55.976Z,101490.00
2022-08-11T19:35:45.620Z,101492.63
2022-08-11T19:38:32.220Z,101496.56
2022-08-11T19:41:52.070Z,101486.91
2022-08-11T19:44:26.662Z,101482.59
2022-08-11T19:47:14.372Z,101480.69
2022-08-11T19:50:02.292Z,101484.28
2022-08-11T19:52:49.400Z,101484.25
2022-08-11T19:55:36.608Z,101477.06
2022-08-11T19:58:26.158Z,101477.78
2022-08-11T20:01:12.056Z,101480.09
2022-08-11T20:03:57.758Z,101485.44
2022-08-11T20:06:43.451Z,101487.81
2022-08-11T20:10:04.893Z,101489.53
2022-08-11T20:12:37.468Z,101486.22
2022-08-11T20:15:26.418Z,101497.31
2022-08-11T20:18:13.312Z,101488.38
2022-08-11T20:20:59.694Z,101495.31
2022-08-11T20:23:46.554Z,101498.75
2022-08-11T20:26:33.190Z,101514.03
2022-08-11T20:29:20.496Z,101510.44
2022-08-11T20:32:09.696Z,101511.34
2022-08-11T20:34:58.661Z,101517.84
2022-08-11T20:37:50.963Z,101513.78
2022-08-11T20:40:40.844Z,101519.25
2022-08-11T20:44:07.840Z,101529.09
2022-08-11T20:46:45.552Z,101520.34
2022-08-11T20:49:40.629Z,101518.91
2022-08-11T20:52:32.222Z,101523.81
2022-08-11T20:55:25.703Z,101524.16
2022-08-11T20:58:18.285Z,101524.13
2022-08-11T21:01:07.456Z,101524.53
2022-08-11T21:04:06.017Z,101530.69
2022-08-11T21:06:54.267Z,101533.34
2022-08-11T21:10:01.069Z,101536.28
2022-08-11T21:12:50.704Z,101534.69
2022-08-11T21:16:01.829Z,101535.78
2022-08-11T21:18:51.237Z,101535.78
2022-08-11T21:21:45.541Z,101534.88
2022-08-11T21:24:37.437Z,101541.16
2022-08-11T21:27:32.191Z,101542.19
2022-08-11T21:30:19.471Z,101543.31
2022-08-11T21:33:05.416Z,101544.16
2022-08-11T21:35:51.683Z,101546.50
2022-08-11T21:38:37.624Z,101547.19
2022-08-11T21:41:25.535Z,101559.47
2022-08-11T21:44:12.713Z,101550.31
2022-08-11T21:46:59.251Z,101555.50
2022-08-11T21:49:46.163Z,101548.16
2022-08-11T21:52:32.416Z,101548.50
2022-08-11T21:55:18.450Z,101550.19
2022-08-11T21:58:05.411Z,101555.75
2022-08-11T22:00:52.184Z,101545.50
2022-08-11T22:03:49.706Z,101551.47
2022-08-11T22:06:36.745Z,101544.00
2022-08-11T22:09:23.135Z,101547.44
2022-08-11T22:12:29.678Z,101531.00
2022-08-11T22:15:15.686Z,101538.28
2022-08-11T22:18:02.238Z,101536.72
2022-08-11T22:20:50.687Z,101545.06
2022-08-11T22:23:38.114Z,101540.19
2022-08-11T22:26:25.512Z,101544.34
2022-08-11T22:29:11.705Z,101542.03
2022-08-11T22:31:59.636Z,101534.25
2022-08-11T22:34:52.655Z,101532.69
2022-08-11T22:37:41.465Z,101534.94
2022-08-11T22:40:28.824Z,101531.69
2022-08-11T22:43:14.696Z,101541.25
2022-08-11T22:46:00.430Z,101538.38
2022-08-11T22:48:49.325Z,101542.53
2022-08-11T22:51:38.142Z,101545.59
2022-08-11T22:54:25.578Z,101552.31
2022-08-11T22:57:12.246Z,101548.88
2022-08-11T22:59:59.374Z,101551.28
2022-08-11T23:02:48.719Z,101543.25
2022-08-11T23:05:35.561Z,101545.59
2022-08-11T23:08:22.678Z,101551.44
2022-08-11T23:11:09.488Z,101551.47
2022-08-11T23:13:55.756Z,101539.19
2022-08-11T23:16:42.369Z,101547.69
2022-08-11T23:20:08.627Z,101548.25
2022-08-11T23:22:49.207Z,101560.38
2022-08-11T23:25:36.510Z,101555.91
2022-08-11T23:28:23.898Z,101550.59
2022-08-11T23:31:15.820Z,101564.94
2022-08-11T23:34:39.414Z,101556.34
2022-08-11T23:37:19.611Z,101561.41
2022-08-11T23:40:05.435Z,101558.69
2022-08-11T23:42:59.267Z,101566.78
2022-08-11T23:45:45.618Z,101561.19
2022-08-11T23:48:33.973Z,101556.13
2022-08-11T23:51:21.216Z,101561.28
2022-08-11T23:54:08.374Z,101559.41
2022-08-11T23:56:54.766Z,101561.72
2022-08-11T23:59:40.795Z,101561.44
